Time;durP1;ratioP1;P1;durP2;ratioP2;P2;SDS_P1;SDS_P2;PMS_P1;PMS_P2;Temp;Humidity;BMP_temperature;BMP_pressure;BME280_temperature;BME280_humidity;BME280_pressure;Samples;Min_cycle;Max_cycle;Signal;HPM_P1;HPM_P2
2022/03/29 00:01:10;;;;;;;70.90;27.88;;;11.00;99.90;;;;;;5107683;28;20028;-56
2022/03/29 00:03:36;;;;;;;59.75;26.75;;;11.10;99.90;;;;;;5101593;28;20043;-59
2022/03/29 00:06:02;;;;;;;58.90;26.55;;;11.20;99.90;;;;;;5107838;28;20031;-56
2022/03/29 00:08:28;;;;;;;65.60;27.90;;;11.20;99.90;;;;;;5110232;28;20108;-57
2022/03/29 00:10:54;;;;;;;66.25;27.52;;;11.30;99.90;;;;;;5108371;28;20031;-57
2022/03/29 00:13:20;;;;;;;60.08;26.58;;;11.30;99.90;;;;;;5110469;28;20026;-56
2022/03/29 00:15:45;;;;;;;60.47;26.17;;;11.20;99.90;;;;;;5104873;28;20027;-56
2022/03/29 00:18:11;;;;;;;68.53;26.67;;;11.20;99.90;;;;;;5109150;28;20065;-59
2022/03/29 00:20:36;;;;;;;67.38;29.23;;;11.20;99.90;;;;;;5105507;28;20032;-61
2022/03/29 00:23:03;;;;;;;62.95;25.52;;;11.20;99.90;;;;;;5107476;28;20028;-59
2022/03/29 00:25:29;;;;;;;63.80;27.88;;;11.10;99.90;;;;;;5108774;28;20043;-58
2022/03/29 00:27:54;;;;;;;70.68;29.27;;;11.10;99.90;;;;;;5108559;28;20063;-57
2022/03/29 00:30:20;;;;;;;66.72;30.35;;;10.90;99.90;;;;;;5105240;28;20027;-59
2022/03/29 00:32:46;;;;;;;67.80;31.77;;;10.60;99.90;;;;;;5106074;28;20081;-58
2022/03/29 00:35:12;;;;;;;74.28;31.73;;;10.50;99.90;;;;;;5109502;28;20028;-58
2022/03/29 00:37:40;;;;;;;71.20;30.00;;;10.40;99.90;;;;;;5105569;28;20028;-60
2022/03/29 00:40:07;;;;;;;68.13;30.15;;;10.40;99.90;;;;;;5109029;28;20563;-57
2022/03/29 00:42:34;;;;;;;73.55;29.63;;;10.30;99.90;;;;;;5111567;28;20035;-58
2022/03/29 00:45:00;;;;;;;64.15;28.33;;;10.30;99.90;;;;;;5102893;28;20026;-57
2022/03/29 00:47:25;;;;;;;70.30;29.65;;;10.20;99.90;;;;;;5109508;28;20499;-56
2022/03/29 00:49:51;;;;;;;78.60;32.15;;;10.20;99.90;;;;;;5110675;28;20055;-57
2022/03/29 00:52:17;;;;;;;67.75;29.02;;;10.00;99.90;;;;;;5109770;28;20366;-56
2022/03/29 00:54:44;;;;;;;74.80;29.80;;;10.00;99.90;;;;;;5104902;28;20032;-58
2022/03/29 00:57:11;;;;;;;72.22;30.13;;;9.90;99.90;;;;;;5108218;28;20015;-59
2022/03/29 00:59:38;;;;;;;66.90;28.30;;;10.00;99.90;;;;;;5109808;28;20101;-60
2022/03/29 01:02:05;;;;;;;63.13;26.15;;;10.00;99.90;;;;;;5105856;28;20420;-58
2022/03/29 01:04:31;;;;;;;54.80;25.67;;;10.10;99.90;;;;;;5103286;28;20011;-57
2022/03/29 01:06:58;;;;;;;57.70;25.70;;;10.30;99.90;;;;;;5101546;28;20046;-60
2022/03/29 01:09:29;;;;;;;60.70;26.90;;;10.40;99.90;;;;;;5103949;28;20034;-56
2022/03/29 01:11:56;;;;;;;68.25;27.13;;;10.40;99.90;;;;;;5099570;28;20219;-58
2022/03/29 01:14:23;;;;;;;71.68;27.15;;;10.20;99.90;;;;;;5108148;28;20012;-57
2022/03/29 01:19:36;;;;;;;71.13;28.92;;;10.00;99.90;;;;;;5106967;28;20392;-55
2022/03/29 01:22:05;;;;;;;73.70;28.63;;;9.90;99.90;;;;;;5109111;28;20028;-56
2022/03/29 01:24:31;;;;;;;70.35;28.17;;;9.80;99.90;;;;;;5108665;28;20047;-60
2022/03/29 01:26:59;;;;;;;71.57;28.77;;;9.80;99.90;;;;;;5107743;28;20024;-55
2022/03/29 01:29:25;;;;;;;61.90;28.27;;;9.80;99.90;;;;;;5105668;28;20034;-58
2022/03/29 01:31:52;;;;;;;67.80;28.88;;;9.80;99.90;;;;;;5108313;28;20080;-58
2022/03/29 01:34:21;;;;;;;67.57;27.88;;;9.70;99.90;;;;;;5109594;28;20023;-58
2022/03/29 01:36:47;;;;;;;59.35;27.98;;;9.70;99.90;;;;;;5106900;28;20447;-58
2022/03/29 01:39:13;;;;;;;69.78;28.27;;;9.70;99.90;;;;;;5109185;28;20026;-58
2022/03/29 01:41:39;;;;;;;64.88;27.38;;;9.60;99.90;;;;;;5109508;28;20024;-55
2022/03/29 01:44:10;;;;;;;71.07;30.27;;;9.60;99.90;;;;;;5108538;28;20080;-58
2022/03/29 01:46:36;;;;;;;69.57;29.60;;;9.60;99.90;;;;;;5100633;28;20031;-57
2022/03/29 01:49:03;;;;;;;81.07;31.52;;;9.60;99.90;;;;;;5103598;28;20115;-56
2022/03/29 01:51:28;;;;;;;81.15;29.38;;;9.60;99.90;;;;;;5103625;28;20101;-55
2022/03/29 01:53:55;;;;;;;66.10;28.73;;;9.60;99.90;;;;;;5109766;28;20444;-59
2022/03/29 01:56:22;;;;;;;79.40;27.33;;;9.60;99.90;;;;;;5107356;28;20027;-58
2022/03/29 01:58:47;;;;;;;65.47;27.92;;;9.60;99.90;;;;;;5104273;28;20098;-57
2022/03/29 02:01:13;;;;;;;62.95;25.73;;;9.70;99.90;;;;;;5108141;28;20644;-58
2022/03/29 02:03:39;;;;;;;60.75;26.80;;;9.80;99.90;;;;;;5104952;28;20093;-58
2022/03/29 02:06:04;;;;;;;72.78;26.88;;;9.90;99.90;;;;;;5102720;28;20402;-60
2022/03/29 02:08:30;;;;;;;59.28;24.35;;;9.90;99.90;;;;;;5106613;28;20024;-53
2022/03/29 02:10:56;;;;;;;57.35;23.58;;;10.00;99.90;;;;;;5103112;28;20036;-58
2022/03/29 02:13:22;;;;;;;66.20;26.40;;;10.20;99.90;;;;;;5107706;28;20024;-57
2022/03/29 02:15:48;;;;;;;57.60;24.48;;;10.30;99.90;;;;;;5099724;28;20051;-60
2022/03/29 02:18:14;;;;;;;59.70;23.05;;;10.40;99.90;;;;;;5109753;28;20019;-58
2022/03/29 02:20:40;;;;;;;55.95;22.13;;;10.40;99.90;;;;;;5110990;28;20110;-58
2022/03/29 02:23:07;;;;;;;57.28;22.85;;;10.50;99.90;;;;;;5104567;28;20123;-59
2022/03/29 02:25:33;;;;;;;54.65;23.67;;;10.50;99.90;;;;;;5103181;28;20077;-56
2022/03/29 02:27:59;;;;;;;59.97;24.27;;;10.50;99.90;;;;;;5103053;28;20485;-55
2022/03/29 02:30:25;;;;;;;55.85;24.70;;;10.60;99.90;;;;;;5109922;28;20030;-55
2022/03/29 02:32:51;;;;;;;55.22;22.90;;;10.50;99.90;;;;;;5109582;28;20080;-56
2022/03/29 02:35:16;;;;;;;52.63;23.55;;;10.50;99.90;;;;;;5103728;28;20500;-59
2022/03/29 02:37:42;;;;;;;53.17;23.67;;;10.40;99.90;;;;;;5106925;28;20679;-59
2022/03/29 02:40:09;;;;;;;56.03;23.00;;;10.20;99.90;;;;;;5106437;28;20115;-59
2022/03/29 02:42:45;;;;;;;69.13;25.38;;;10.10;99.90;;;;;;5103637;28;20035;-60
2022/03/29 02:45:15;;;;;;;64.75;24.48;;;9.90;99.90;;;;;;5102345;28;20028;-56
2022/03/29 02:47:46;;;;;;;60.83;25.42;;;9.90;99.90;;;;;;5104804;28;20035;-59
2022/03/29 02:50:13;;;;;;;60.40;25.02;;;9.80;99.90;;;;;;5107054;28;20032;-59
2022/03/29 02:52:47;;;;;;;64.97;24.08;;;9.80;99.90;;;;;;5103876;28;20028;-55
2022/03/29 02:55:13;;;;;;;59.10;24.98;;;9.70;99.90;;;;;;5102183;28;20020;-58
2022/03/29 02:57:39;;;;;;;59.83;25.88;;;9.60;99.90;;;;;;5103914;28;20035;-57
2022/03/29 03:00:06;;;;;;;65.07;25.35;;;9.60;99.90;;;;;;5109050;28;20023;-57
2022/03/29 03:02:34;;;;;;;70.43;28.73;;;9.70;99.90;;;;;;5108107;28;20085;-56
2022/03/29 03:05:01;;;;;;;66.43;25.10;;;9.70;99.90;;;;;;5104727;28;20024;-58
2022/03/29 03:07:27;;;;;;;66.55;26.60;;;9.60;99.90;;;;;;5103936;28;20023;-58
2022/03/29 03:09:53;;;;;;;60.72;22.90;;;9.60;99.90;;;;;;5106291;28;20095;-59
2022/03/29 03:12:19;;;;;;;64.25;24.80;;;9.60;99.90;;;;;;5095089;28;20077;-57
2022/03/29 03:14:45;;;;;;;62.25;22.15;;;9.70;99.90;;;;;;5097008;28;20039;-60
2022/03/29 03:17:11;;;;;;;57.92;23.48;;;9.80;99.90;;;;;;5101809;28;20019;-59
2022/03/29 03:19:36;;;;;;;64.95;23.85;;;9.90;99.90;;;;;;5106958;28;20055;-58
2022/03/29 03:22:02;;;;;;;55.83;23.45;;;10.00;99.90;;;;;;5104427;28;20032;-58
2022/03/29 03:24:28;;;;;;;58.42;24.17;;;10.10;99.90;;;;;;5106839;28;20812;-56
2022/03/29 03:26:54;;;;;;;55.75;23.73;;;10.10;99.90;;;;;;5103498;28;20039;-57
2022/03/29 03:29:19;;;;;;;51.75;21.42;;;10.20;99.90;;;;;;5105023;28;20031;-57
2022/03/29 03:31:45;;;;;;;61.78;23.15;;;10.20;99.90;;;;;;5100534;28;20039;-58
2022/03/29 03:34:10;;;;;;;61.67;25.17;;;10.10;99.90;;;;;;5105470;28;20096;-59
2022/03/29 03:36:36;;;;;;;51.47;23.77;;;10.10;99.90;;;;;;5109450;28;20032;-57
2022/03/29 03:39:02;;;;;;;62.17;24.17;;;10.00;99.90;;;;;;5109292;28;20385;-57
2022/03/29 03:41:27;;;;;;;56.75;22.63;;;9.90;99.90;;;;;;5110598;28;20035;-58
2022/03/29 03:43:54;;;;;;;51.65;23.50;;;10.00;99.90;;;;;;5108640;28;20031;-56
2022/03/29 03:46:19;;;;;;;54.25;22.35;;;10.00;99.90;;;;;;5109969;28;20366;-60
2022/03/29 03:48:45;;;;;;;53.45;22.75;;;10.10;99.90;;;;;;5111349;28;20042;-58
2022/03/29 03:51:10;;;;;;;59.80;24.00;;;10.10;99.90;;;;;;5105418;28;20036;-59
2022/03/29 03:53:36;;;;;;;61.28;22.50;;;10.10;99.90;;;;;;5111600;28;20020;-61
2022/03/29 03:56:02;;;;;;;51.67;21.30;;;10.10;99.90;;;;;;5103977;28;20525;-60
2022/03/29 03:58:27;;;;;;;59.33;23.63;;;10.20;99.90;;;;;;5107423;28;20399;-57
2022/03/29 04:00:53;;;;;;;61.60;24.83;;;10.00;99.90;;;;;;5109687;28;20389;-57
2022/03/29 04:03:18;;;;;;;61.03;23.05;;;9.90;99.90;;;;;;5107764;28;20031;-59
2022/03/29 04:05:44;;;;;;;60.70;23.38;;;9.80;99.90;;;;;;5104523;28;20053;-56
2022/03/29 04:08:10;;;;;;;56.20;22.30;;;9.70;99.90;;;;;;5108916;28;20047;-57
2022/03/29 04:10:36;;;;;;;60.40;26.60;;;9.70;99.90;;;;;;5110204;28;20028;-57
2022/03/29 04:13:02;;;;;;;53.63;23.35;;;9.60;99.90;;;;;;5112648;28;20027;-59
2022/03/29 04:15:27;;;;;;;55.17;23.42;;;9.60;99.90;;;;;;5105530;28;20090;-56
2022/03/29 04:17:53;;;;;;;66.65;25.10;;;9.50;99.90;;;;;;5106024;28;20035;-58
2022/03/29 04:20:18;;;;;;;58.53;25.02;;;9.40;99.90;;;;;;5108958;28;20032;-57
2022/03/29 04:22:44;;;;;;;67.72;24.55;;;9.40;99.90;;;;;;5107251;28;20157;-58
2022/03/29 04:25:10;;;;;;;61.17;23.95;;;9.40;99.90;;;;;;5109454;28;20442;-58
2022/03/29 04:27:36;;;;;;;63.35;24.65;;;9.40;99.90;;;;;;5109777;28;20505;-58
2022/03/29 04:30:02;;;;;;;67.82;24.25;;;9.40;99.90;;;;;;5103832;28;20024;-59
2022/03/29 04:32:28;;;;;;;59.10;24.35;;;9.40;99.90;;;;;;5110255;28;20023;-60
2022/03/29 04:34:53;;;;;;;60.75;25.48;;;9.40;99.90;;;;;;5102921;28;20032;-56
2022/03/29 04:37:19;;;;;;;63.08;25.15;;;9.30;99.90;;;;;;5104310;28;20053;-59
2022/03/29 04:39:44;;;;;;;67.22;24.33;;;9.20;99.90;;;;;;5104623;28;20137;-59
2022/03/29 04:42:10;;;;;;;65.03;25.70;;;9.20;99.90;;;;;;5112531;28;20050;-60
2022/03/29 04:44:36;;;;;;;64.95;25.95;;;9.10;99.90;;;;;;5110935;28;20497;-55
2022/03/29 04:47:02;;;;;;;64.60;25.90;;;9.10;99.90;;;;;;5108207;28;20028;-59
2022/03/29 04:49:27;;;;;;;66.90;25.70;;;9.10;99.90;;;;;;5099339;22;20056;-62
2022/03/29 04:51:53;;;;;;;61.10;25.90;;;9.00;99.90;;;;;;5091350;28;20410;-60
2022/03/29 04:54:18;;;;;;;65.85;25.85;;;9.00;99.90;;;;;;5090051;28;20036;-62
2022/03/29 04:56:44;;;;;;;63.40;25.35;;;9.00;99.90;;;;;;5090428;28;20169;-62
2022/03/29 04:59:09;;;;;;;65.25;25.95;;;8.90;99.90;;;;;;5087817;28;20040;-62
2022/03/29 05:01:36;;;;;;;58.65;25.50;;;8.90;99.90;;;;;;5089185;28;20186;-61
2022/03/29 05:04:02;;;;;;;61.80;25.02;;;8.90;99.90;;;;;;5091638;28;20478;-61
2022/03/29 05:06:28;;;;;;;57.75;23.10;;;8.90;99.90;;;;;;5087611;28;20443;-60
2022/03/29 05:08:54;;;;;;;63.55;25.02;;;8.90;99.90;;;;;;5084280;28;20039;-58
2022/03/29 05:11:19;;;;;;;64.70;26.85;;;8.90;99.90;;;;;;5082038;28;20085;-62
2022/03/29 05:13:45;;;;;;;68.43;27.88;;;8.90;99.90;;;;;;5085968;28;20020;-63
2022/03/29 05:16:10;;;;;;;63.58;24.08;;;8.90;99.90;;;;;;5087473;28;20101;-60
2022/03/29 05:18:36;;;;;;;62.90;26.98;;;8.80;99.90;;;;;;5088321;28;20107;-59
2022/03/29 05:21:02;;;;;;;70.50;28.40;;;8.80;99.90;;;;;;5087018;28;20277;-57
2022/03/29 05:23:27;;;;;;;71.90;26.35;;;8.80;99.90;;;;;;5088454;28;20028;-58
2022/03/29 05:25:53;;;;;;;66.38;25.45;;;8.80;99.90;;;;;;5088911;28;20028;-55
2022/03/29 05:28:18;;;;;;;63.60;24.80;;;8.90;99.90;;;;;;5082639;28;20032;-59
2022/03/29 05:30:44;;;;;;;60.78;25.30;;;8.90;99.90;;;;;;5086724;28;20020;-59
2022/03/29 05:33:15;;;;;;;70.88;25.85;;;8.90;99.90;;;;;;5088339;28;20054;-59
2022/03/29 05:35:42;;;;;;;69.60;27.02;;;8.90;99.90;;;;;;5089433;28;20034;-60
2022/03/29 05:38:08;;;;;;;60.05;24.98;;;8.90;99.90;;;;;;5085543;28;20889;-59
2022/03/29 05:40:34;;;;;;;72.43;25.70;;;9.00;99.90;;;;;;5082644;28;20035;-55
2022/03/29 05:42:59;;;;;;;63.90;25.90;;;9.10;99.90;;;;;;5082401;28;20028;-57
2022/03/29 05:45:25;;;;;;;66.38;24.75;;;9.10;99.90;;;;;;5086824;28;20051;-56
2022/03/29 05:50:36;;;;;;;68.97;25.33;;;9.10;99.90;;;;;;5082962;28;20154;-55
2022/03/29 05:53:02;;;;;;;78.30;26.77;;;9.10;99.90;;;;;;5084187;28;20119;-58
2022/03/29 05:55:28;;;;;;;77.38;26.45;;;9.10;99.90;;;;;;5074310;28;20053;-58
2022/03/29 05:57:54;;;;;;;70.60;25.58;;;9.00;99.90;;;;;;5082186;28;20066;-55
2022/03/29 06:00:23;;;;;;;59.78;25.25;;;8.90;99.90;;;;;;5078319;28;20125;-62
2022/03/29 06:02:49;;;;;;;68.90;25.15;;;9.00;99.90;;;;;;5084259;28;20028;-57
2022/03/29 06:05:14;;;;;;;69.85;26.17;;;9.10;99.90;;;;;;5080757;28;20039;-57
2022/03/29 06:07:40;;;;;;;62.15;28.15;;;9.10;99.90;;;;;;5083443;28;20039;-56
2022/03/29 06:10:07;;;;;;;72.78;26.77;;;9.10;99.90;;;;;;5082538;28;20024;-59
2022/03/29 06:12:33;;;;;;;60.85;25.90;;;9.10;99.90;;;;;;5077475;28;20033;-57
2022/03/29 06:15:02;;;;;;;66.95;26.20;;;9.10;99.90;;;;;;5081523;28;20032;-57
2022/03/29 06:17:28;;;;;;;61.20;24.98;;;9.10;99.90;;;;;;5079784;28;20028;-59
2022/03/29 06:19:54;;;;;;;68.28;25.85;;;9.10;99.90;;;;;;5079786;28;20028;-58
2022/03/29 06:22:20;;;;;;;73.30;26.30;;;9.10;99.90;;;;;;5077589;28;20055;-58
2022/03/29 06:24:46;;;;;;;70.07;26.70;;;9.20;99.90;;;;;;5080394;28;20067;-59
2022/03/29 06:27:11;;;;;;;65.40;25.70;;;9.30;99.90;;;;;;5082631;28;20075;-56
2022/03/29 06:29:37;;;;;;;74.38;25.17;;;9.40;99.90;;;;;;5084615;28;20035;-57
2022/03/29 06:32:03;;;;;;;62.38;25.92;;;9.50;99.90;;;;;;5081643;28;20039;-57
2022/03/29 06:34:29;;;;;;;57.70;23.83;;;9.60;99.90;;;;;;5087659;28;20036;-59
2022/03/29 06:36:56;;;;;;;64.03;27.05;;;9.60;99.90;;;;;;5081645;28;20046;-57
2022/03/29 06:39:21;;;;;;;60.25;23.67;;;9.70;99.90;;;;;;5079475;28;20035;-59
2022/03/29 06:41:47;;;;;;;59.22;23.35;;;9.80;99.90;;;;;;5080827;28;20481;-57
2022/03/29 06:44:13;;;;;;;71.97;26.95;;;9.90;99.90;;;;;;5079282;28;20123;-59
2022/03/29 06:46:42;;;;;;;63.50;26.00;;;9.90;99.90;;;;;;5086781;28;20062;-57
2022/03/29 06:49:08;;;;;;;62.65;23.10;;;10.00;99.90;;;;;;5088738;28;20105;-57
2022/03/29 06:51:35;;;;;;;70.13;25.30;;;10.10;99.90;;;;;;5084932;28;20885;-58
2022/03/29 06:54:02;;;;;;;51.78;24.40;;;10.10;99.90;;;;;;5069212;28;20148;-59
2022/03/29 06:56:28;;;;;;;60.72;25.55;;;10.10;99.90;;;;;;5087562;28;20026;-57
2022/03/29 06:58:54;;;;;;;52.92;23.52;;;10.10;99.90;;;;;;5081804;28;20017;-59
2022/03/29 07:01:21;;;;;;;64.68;24.70;;;10.20;99.90;;;;;;5083204;28;20032;-59
2022/03/29 07:03:47;;;;;;;55.58;23.48;;;10.30;99.90;;;;;;5064745;28;20024;-59
2022/03/29 07:06:14;;;;;;;53.20;24.25;;;10.40;99.90;;;;;;5078929;28;20407;-58
2022/03/29 07:11:16;;;;;;;57.60;25.60;;;10.50;99.90;;;;;;5064087;28;20051;-57
2022/03/29 07:11:27;;;;;;;55.55;23.75;;;10.60;99.90;;;;;;5083381;28;20036;-58
2022/03/29 07:13:54;;;;;;;65.07;26.48;;;10.60;99.90;;;;;;5053038;28;20055;-57
2022/03/29 07:16:20;;;;;;;59.28;24.63;;;10.70;99.90;;;;;;5088742;28;20066;-58
2022/03/29 07:18:46;;;;;;;59.00;24.95;;;10.80;99.90;;;;;;5086923;28;20063;-58
2022/03/29 07:21:11;;;;;;;63.97;24.45;;;10.90;99.90;;;;;;5086590;28;20052;-57
2022/03/29 07:23:38;;;;;;;57.75;25.05;;;11.00;99.90;;;;;;5086703;28;20023;-60
2022/03/29 07:26:04;;;;;;;67.13;25.55;;;11.00;99.90;;;;;;5080340;28;20496;-58
2022/03/29 07:28:30;;;;;;;56.55;25.33;;;11.10;99.90;;;;;;5086492;28;20040;-59
2022/03/29 07:30:56;;;;;;;53.65;23.35;;;11.20;99.90;;;;;;5084116;28;20035;-58
2022/03/29 07:33:22;;;;;;;55.58;24.42;;;11.20;99.90;;;;;;5088282;28;20020;-59
2022/03/29 07:35:48;;;;;;;54.50;25.63;;;11.30;99.90;;;;;;5092215;28;20066;-56
2022/03/29 07:38:13;;;;;;;59.05;26.15;;;11.40;99.90;;;;;;5086739;28;20393;-56
2022/03/29 07:40:41;;;;;;;83.18;29.08;;;11.50;99.90;;;;;;5088964;28;20059;-57
2022/03/29 07:43:10;;;;;;;63.78;27.15;;;11.50;99.90;;;;;;5090269;28;20037;-59
2022/03/29 07:45:35;;;;;;;70.90;30.70;;;11.60;99.90;;;;;;5092113;28;20447;-55
2022/03/29 07:48:03;;;;;;;63.00;27.58;;;11.70;99.90;;;;;;5091960;28;20107;-58
2022/03/29 07:50:31;;;;;;;60.83;28.10;;;11.80;99.90;;;;;;5086603;28;20017;-57
2022/03/29 07:52:59;;;;;;;68.10;31.25;;;11.80;99.90;;;;;;5089419;28;20131;-58
2022/03/29 07:55:25;;;;;;;65.65;30.30;;;11.90;99.90;;;;;;5082242;28;20446;-57
2022/03/29 07:57:51;;;;;;;64.35;29.38;;;11.90;99.90;;;;;;5085396;28;20110;-58
2022/03/29 08:00:32;;;;;;;66.32;30.17;;;12.00;99.90;;;;;;5089064;28;20040;-59
2022/03/29 08:02:59;;;;;;;76.22;30.77;;;12.10;99.90;;;;;;5088779;28;20090;-57
2022/03/29 08:05:25;;;;;;;49.92;26.42;;;12.10;99.90;;;;;;5079334;28;20020;-59
2022/03/29 08:07:51;;;;;;;60.53;28.20;;;12.10;99.90;;;;;;5091058;28;20044;-57
2022/03/29 08:10:17;;;;;;;56.88;27.75;;;12.20;99.90;;;;;;5092154;28;20020;-57
2022/03/29 08:12:44;;;;;;;63.00;28.30;;;12.30;99.90;;;;;;5083234;28;20031;-59
2022/03/29 08:15:11;;;;;;;57.50;28.92;;;12.40;99.90;;;;;;5089436;28;20028;-59
2022/03/29 08:17:37;;;;;;;59.58;28.75;;;12.40;99.90;;;;;;5091827;28;20072;-57
2022/03/29 08:20:05;;;;;;;56.33;27.05;;;12.60;99.90;;;;;;5084832;28;20162;-59
2022/03/29 08:22:32;;;;;;;61.85;28.98;;;12.70;99.90;;;;;;5084217;28;20098;-57
2022/03/29 08:24:59;;;;;;;50.60;27.00;;;12.60;99.90;;;;;;5081114;28;20028;-59
2022/03/29 08:27:25;;;;;;;56.38;28.92;;;12.70;99.90;;;;;;5081696;28;20405;-58
2022/03/29 08:29:50;;;;;;;51.88;27.23;;;12.70;99.90;;;;;;5085961;28;20028;-56
2022/03/29 08:32:16;;;;;;;50.13;27.25;;;12.70;99.90;;;;;;5091268;28;20111;-56
2022/03/29 08:34:42;;;;;;;52.58;27.15;;;12.80;99.90;;;;;;5088130;28;20031;-58
2022/03/29 08:37:07;;;;;;;53.55;27.65;;;12.90;99.90;;;;;;5091569;28;20028;-57
2022/03/29 08:39:33;;;;;;;53.67;27.40;;;13.00;99.90;;;;;;5091859;28;20056;-58
2022/03/29 08:42:05;;;;;;;65.03;28.80;;;13.00;99.90;;;;;;5071686;28;20154;-56
2022/03/29 08:44:32;;;;;;;57.90;27.67;;;13.10;99.90;;;;;;5081101;28;20034;-58
2022/03/29 08:46:58;;;;;;;47.88;25.80;;;13.20;99.90;;;;;;5087926;28;20389;-58
2022/03/29 08:49:24;;;;;;;55.90;28.10;;;13.20;99.90;;;;;;5089262;28;20091;-58
2022/03/29 08:51:50;;;;;;;53.00;26.90;;;13.20;99.90;;;;;;5084645;28;20032;-58
2022/03/29 08:54:16;;;;;;;51.83;26.27;;;13.30;99.90;;;;;;5088687;28;20020;-59
2022/03/29 08:56:42;;;;;;;65.35;28.77;;;13.30;99.90;;;;;;5088594;28;20027;-59
2022/03/29 08:59:08;;;;;;;51.92;26.55;;;13.30;99.90;;;;;;5089432;28;20070;-59
2022/03/29 09:01:33;;;;;;;58.03;27.20;;;13.40;99.90;;;;;;5090333;28;20032;-59
2022/03/29 09:04:14;;;;;;;52.10;26.23;;;13.40;99.90;;;;;;5090446;28;20032;-59
2022/03/29 09:07:03;;;;;;;53.05;27.80;;;13.40;99.90;;;;;;5089969;28;20504;-59
2022/03/29 09:09:31;;;;;;;57.33;27.55;;;13.40;99.90;;;;;;5090319;28;20032;-58
2022/03/29 09:11:59;;;;;;;57.40;28.73;;;13.50;99.90;;;;;;5090829;28;20024;-58
2022/03/29 09:14:29;;;;;;;52.35;27.00;;;13.40;99.90;;;;;;5084869;28;20024;-58
2022/03/29 09:16:55;;;;;;;55.63;28.35;;;13.60;99.90;;;;;;5091566;28;20031;-58
2022/03/29 09:19:24;;;;;;;53.85;27.90;;;13.70;99.90;;;;;;5087655;28;20016;-58
2022/03/29 09:21:51;;;;;;;57.63;27.52;;;13.70;99.90;;;;;;5086434;28;20032;-58
2022/03/29 09:24:18;;;;;;;60.33;29.35;;;13.70;99.90;;;;;;5090621;28;20095;-59
2022/03/29 09:26:54;;;;;;;57.67;27.65;;;13.60;99.90;;;;;;5090657;28;20497;-59
2022/03/29 09:29:21;;;;;;;52.45;26.52;;;13.60;99.90;;;;;;5090840;28;20650;-58
2022/03/29 09:32:22;;;;;;;51.70;25.77;;;13.80;99.90;;;;;;5088549;28;20033;-59
2022/03/29 09:35:09;;;;;;;56.63;27.92;;;14.00;99.90;;;;;;5033377;28;20033;-59
2022/03/29 09:37:36;;;;;;;55.90;27.55;;;14.00;99.90;;;;;;5087258;28;20365;-58
2022/03/29 09:40:02;;;;;;;56.85;26.73;;;14.10;99.90;;;;;;5090485;28;20108;-57
2022/03/29 09:42:28;;;;;;;47.65;26.23;;;14.20;99.90;;;;;;5091108;28;20024;-58
2022/03/29 09:44:55;;;;;;;53.20;25.85;;;14.30;99.90;;;;;;5090602;28;20028;-58
2022/03/29 09:47:22;;;;;;;52.90;27.67;;;14.50;99.90;;;;;;5090120;28;20024;-55
2022/03/29 09:49:52;;;;;;;51.25;27.08;;;14.70;99.90;;;;;;5088381;28;20032;-58
2022/03/29 09:52:20;;;;;;;49.25;26.70;;;14.70;99.90;;;;;;5090404;28;20557;-55
2022/03/29 09:55:17;;;;;;;49.88;24.05;;;14.70;99.90;;;;;;5082768;28;20035;-58
2022/03/29 09:57:45;;;;;;;44.63;22.73;;;14.80;99.90;;;;;;5081003;28;20028;-55
2022/03/29 10:00:17;;;;;;;52.22;23.73;;;14.90;99.90;;;;;;5076284;28;20073;-54
2022/03/29 10:02:45;;;;;;;51.03;23.52;;;15.10;99.90;;;;;;5084930;28;20444;-56
2022/03/29 10:05:11;;;;;;;52.85;26.02;;;15.20;99.90;;;;;;5083551;28;20024;-56
2022/03/29 10:07:45;;;;;;;45.05;23.50;;;15.20;99.90;;;;;;5069980;28;20089;-58
2022/03/29 10:10:11;;;;;;;41.65;22.63;;;15.40;99.90;;;;;;5080132;28;20036;-58
2022/03/29 10:12:38;;;;;;;43.55;21.80;;;15.50;99.90;;;;;;5088272;28;20901;-58
2022/03/29 10:15:05;;;;;;;39.33;21.60;;;15.40;99.90;;;;;;5087561;28;20036;-56
2022/03/29 10:17:32;;;;;;;42.25;21.15;;;15.40;99.90;;;;;;5088991;28;20035;-58
2022/03/29 10:19:58;;;;;;;33.55;17.90;;;15.60;99.90;;;;;;5088231;28;20024;-55
2022/03/29 10:22:25;;;;;;;37.75;19.45;;;15.80;99.90;;;;;;5089795;28;20058;-59
2022/03/29 10:24:50;;;;;;;35.30;18.85;;;15.90;99.90;;;;;;5088783;28;20036;-58
2022/03/29 10:27:19;;;;;;;39.17;19.83;;;15.80;99.90;;;;;;5088227;28;20043;-58
2022/03/29 10:29:45;;;;;;;45.65;20.67;;;15.70;99.90;;;;;;5088527;28;20054;-55
2022/03/29 10:32:11;;;;;;;39.50;19.50;;;15.90;99.90;;;;;;5069961;28;20032;-56
2022/03/29 10:34:42;;;;;;;37.85;19.58;;;16.00;99.90;;;;;;5080420;28;20035;-58
2022/03/29 10:37:07;;;;;;;42.45;20.60;;;16.00;99.90;;;;;;5089061;28;20020;-59
2022/03/29 10:39:48;;;;;;;34.33;18.73;;;15.70;99.90;;;;;;5088396;28;20876;-55
2022/03/29 10:42:37;;;;;;;42.45;19.55;;;15.90;99.90;;;;;;5089539;28;20038;-54
2022/03/29 10:45:19;;;;;;;38.63;18.55;;;16.10;99.90;;;;;;5084086;28;20135;-55
2022/03/29 10:47:48;;;;;;;35.65;18.70;;;16.20;99.90;;;;;;5088736;28;20051;-57
2022/03/29 10:50:15;;;;;;;37.17;19.85;;;16.00;99.90;;;;;;5086802;22;20047;-58
2022/03/29 10:52:43;;;;;;;32.33;18.52;;;15.80;99.90;;;;;;5063806;28;20051;-56
2022/03/29 10:55:28;;;;;;;34.72;19.38;;;15.90;99.90;;;;;;5068553;28;20028;-57
2022/03/29 10:58:14;;;;;;;33.33;18.15;;;15.90;99.90;;;;;;5071107;28;20033;-59
2022/03/29 11:00:46;;;;;;;32.50;17.25;;;16.10;99.90;;;;;;5063701;28;20021;-57
2022/03/29 11:03:20;;;;;;;31.52;15.60;;;16.00;99.90;;;;;;5056067;28;20390;-58
2022/03/29 11:06:12;;;;;;;23.58;14.20;;;16.10;99.90;;;;;;5059477;28;20094;-57
2022/03/29 11:08:40;;;;;;;24.17;14.18;;;16.30;99.90;;;;;;5064437;28;20516;-56
2022/03/29 11:11:07;;;;;;;25.45;14.75;;;16.50;99.90;;;;;;5064033;28;20080;-57
2022/03/29 11:13:39;;;;;;;26.35;14.88;;;16.50;99.90;;;;;;5055696;28;20032;-59
2022/03/29 11:16:29;;;;;;;35.00;15.95;;;16.50;99.90;;;;;;5055089;28;20167;-58
2022/03/29 11:18:55;;;;;;;26.45;15.05;;;16.40;99.90;;;;;;5053903;28;20084;-57
2022/03/29 11:21:47;;;;;;;27.38;15.52;;;16.60;99.90;;;;;;5063058;28;20037;-57
2022/03/29 11:24:13;;;;;;;19.38;12.13;;;16.70;99.90;;;;;;5048133;28;20453;-58
2022/03/29 11:26:53;;;;;;;26.73;12.68;;;16.80;99.90;;;;;;5049454;28;20049;-57
2022/03/29 11:29:19;;;;;;;21.30;12.80;;;17.00;99.90;;;;;;5051526;28;20037;-59
2022/03/29 11:31:45;;;;;;;23.33;12.73;;;16.60;99.90;;;;;;5061122;28;20036;-59
2022/03/29 11:34:11;;;;;;;24.52;12.95;;;16.30;99.90;;;;;;5063501;28;20021;-59
2022/03/29 11:36:38;;;;;;;22.83;12.90;;;16.50;99.90;;;;;;5064847;28;20486;-58
2022/03/29 11:39:08;;;;;;;22.25;12.27;;;16.70;99.90;;;;;;5062450;28;20036;-59
2022/03/29 11:41:35;;;;;;;23.10;13.05;;;17.10;99.90;;;;;;5054384;28;20029;-59
2022/03/29 11:44:04;;;;;;;19.55;11.77;;;17.30;99.90;;;;;;5060517;28;20073;-56
2022/03/29 11:46:43;;;;;;;16.40;11.02;;;17.30;99.90;;;;;;5064627;28;20028;-59
2022/03/29 11:49:09;;;;;;;22.30;10.85;;;17.50;99.90;;;;;;5059620;28;20314;-59
2022/03/29 11:51:34;;;;;;;18.20;10.32;;;17.30;99.90;;;;;;5054754;28;20905;-59
2022/03/29 11:54:00;;;;;;;14.43;8.98;;;17.40;99.90;;;;;;5057303;28;20032;-57
2022/03/29 11:56:26;;;;;;;14.18;8.07;;;17.30;99.90;;;;;;5056079;28;20025;-63
2022/03/29 11:58:54;;;;;;;14.57;8.10;;;17.30;99.90;;;;;;5069942;28;20389;-58
2022/03/29 12:01:28;;;;;;;13.52;7.50;;;17.50;99.90;;;;;;5064378;28;20432;-57
2022/03/29 12:03:56;;;;;;;14.68;8.05;;;17.60;99.90;;;;;;5064815;28;20506;-58
2022/03/29 12:06:27;;;;;;;13.75;7.30;;;17.70;99.90;;;;;;5068360;28;20855;-57
2022/03/29 12:08:59;;;;;;;16.30;8.80;;;18.00;99.90;;;;;;5064298;28;20078;-59
2022/03/29 12:11:33;;;;;;;16.48;9.02;;;17.80;99.90;;;;;;5060923;28;20521;-58
2022/03/29 12:14:07;;;;;;;17.67;9.23;;;17.80;99.90;;;;;;5056981;28;20025;-57
2022/03/29 12:16:41;;;;;;;13.75;8.98;;;18.00;99.90;;;;;;5063982;28;20024;-59
2022/03/29 12:19:08;;;;;;;20.40;10.02;;;18.20;99.90;;;;;;5060234;28;20025;-58
2022/03/29 12:21:33;;;;;;;15.50;8.27;;;18.00;99.90;;;;;;5064784;28;20029;-59
2022/03/29 12:24:06;;;;;;;12.20;7.95;;;18.30;99.90;;;;;;5058550;28;20036;-58
2022/03/29 12:26:32;;;;;;;13.45;8.32;;;18.40;99.90;;;;;;5063959;28;20031;-56
2022/03/29 12:28:59;;;;;;;19.63;9.07;;;18.50;99.90;;;;;;5074137;28;20043;-56
2022/03/29 12:31:27;;;;;;;17.20;9.88;;;18.60;99.90;;;;;;5063661;28;20072;-58
2022/03/29 12:33:55;;;;;;;18.02;10.05;;;18.60;99.90;;;;;;5067259;28;20016;-56
2022/03/29 12:36:21;;;;;;;17.70;10.80;;;18.70;99.90;;;;;;5058091;28;20028;-54
2022/03/29 12:38:50;;;;;;;24.40;12.00;;;18.70;99.90;;;;;;5067236;28;20025;-59